createdAt,value
2018-10-11T00:00:49.686Z,28.80
2018-10-11T00:03:23.314Z,27.63
2018-10-11T00:05:57.346Z,29.80
2018-10-11T00:08:31.326Z,30.70
2018-10-11T00:11:05.311Z,33.33
2018-10-11T00:13:40.309Z,27.22
2018-10-11T00:16:13.892Z,25.80
2018-10-11T00:18:47.663Z,26.93
2018-10-11T00:21:21.843Z,25.50
2018-10-11T00:23:55.666Z,26.90
2018-10-11T00:26:30.240Z,24.57
2018-10-11T00:29:04.168Z,23.50
2018-10-11T00:31:38.580Z,22.37
2018-10-11T00:34:12.393Z,22.57
2018-10-11T00:36:46.271Z,23.35
2018-10-11T00:39:20.233Z,24.57
2018-10-11T00:41:53.984Z,27.43
2018-10-11T00:44:29.520Z,24.98
2018-10-11T00:47:03.678Z,26.17
2018-10-11T00:49:37.324Z,22.43
2018-10-11T00:52:11.138Z,23.05
2018-10-11T00:54:45.613Z,24.20
2018-10-11T00:57:19.254Z,26.10
2018-10-11T00:59:53.163Z,21.93
2018-10-11T01:02:27.651Z,25.97
2018-10-11T01:05:01.308Z,21.60
2018-10-11T01:07:34.904Z,21.57
2018-10-11T01:10:10.189Z,20.47
2018-10-11T01:12:44.308Z,20.20
2018-10-11T01:15:19.172Z,19.30
2018-10-11T01:17:53.013Z,19.17
2018-10-11T01:20:26.988Z,24.00
2018-10-11T01:23:01.012Z,23.37
2018-10-11T01:25:34.557Z,23.32
2018-10-11T01:28:08.457Z,23.98
2018-10-11T01:30:46.088Z,26.60
2018-10-11T01:33:19.767Z,29.80
2018-10-11T01:40:48.724Z,26.80
2018-10-11T01:43:22.420Z,23.23
2018-10-11T01:45:56.670Z,24.52
2018-10-11T01:48:30.977Z,21.10
2018-10-11T01:51:05.241Z,23.47
2018-10-11T01:53:39.039Z,21.23
2018-10-11T01:56:12.953Z,19.20
2018-10-11T01:58:46.975Z,23.60
2018-10-11T02:01:20.840Z,18.80
2018-10-11T02:03:54.651Z,19.10
2018-10-11T02:06:29.136Z,16.73
2018-10-11T02:09:03.266Z,19.57
2018-10-11T02:11:37.173Z,17.27
2018-10-11T02:14:11.096Z,17.57
2018-10-11T02:16:46.025Z,22.07
2018-10-11T02:19:20.662Z,26.33
2018-10-11T02:21:54.728Z,26.13
2018-10-11T02:24:28.443Z,29.87
2018-10-11T02:27:02.306Z,29.40
2018-10-11T02:29:35.691Z,26.65
2018-10-11T02:32:09.644Z,24.13
2018-10-11T02:34:43.973Z,27.23
2018-10-11T02:37:18.283Z,22.15
2018-10-11T02:39:52.327Z,28.47
2018-10-11T02:42:26.635Z,24.07
2018-10-11T02:45:00.655Z,20.47
2018-10-11T02:47:33.969Z,22.43
2018-10-11T02:50:07.627Z,19.70
2018-10-11T02:52:41.507Z,20.73
2018-10-11T02:55:25.748Z,19.10
2018-10-11T02:58:08.485Z,21.30
2018-10-11T03:00:42.155Z,18.77
2018-10-11T03:03:17.071Z,18.40
2018-10-11T03:05:51.269Z,20.50
2018-10-11T03:08:25.495Z,19.70
2018-10-11T03:10:59.798Z,18.62
2018-10-11T03:13:34.460Z,19.80
2018-10-11T03:16:08.331Z,19.97
2018-10-11T03:18:44.051Z,19.43
2018-10-11T03:21:18.034Z,18.83
2018-10-11T03:23:52.214Z,20.90
2018-10-11T03:26:25.972Z,22.47
2018-10-11T03:29:00.314Z,16.83
2018-10-11T03:31:34.004Z,16.30
2018-10-11T03:34:07.950Z,18.43
2018-10-11T03:36:41.944Z,16.67
2018-10-11T03:39:15.533Z,17.57
2018-10-11T03:41:49.231Z,16.93
2018-10-11T03:44:23.500Z,16.57
2018-10-11T03:46:57.347Z,15.93
2018-10-11T03:49:34.044Z,14.33
2018-10-11T03:52:08.477Z,14.53
2018-10-11T03:54:42.050Z,16.20
2018-10-11T03:57:16.350Z,14.87
2018-10-11T03:59:49.747Z,14.65
2018-10-11T04:02:23.834Z,16.17
2018-10-11T04:04:57.952Z,15.87
2018-10-11T04:07:31.738Z,16.07
2018-10-11T04:10:06.113Z,15.40
2018-10-11T04:12:39.884Z,16.20
2018-10-11T04:15:14.472Z,15.77
2018-10-11T04:17:48.567Z,17.63
2018-10-11T04:20:24.484Z,16.35
2018-10-11T04:22:57.917Z,14.97
2018-10-11T04:25:31.858Z,15.18
2018-10-11T04:33:04.023Z,14.95
2018-10-11T04:35:37.501Z,15.93
2018-10-11T04:38:11.789Z,14.75
2018-10-11T04:40:45.249Z,13.10
2018-10-11T04:43:18.900Z,15.68
2018-10-11T04:45:52.945Z,15.90
2018-10-11T04:48:26.852Z,14.95
2018-10-11T04:51:00.969Z,13.90
2018-10-11T04:53:35.399Z,13.78
2018-10-11T04:56:09.451Z,13.83
2018-10-11T04:58:47.223Z,14.10
2018-10-11T05:01:21.514Z,14.33
2018-10-11T05:03:55.225Z,14.60
2018-10-11T05:06:29.035Z,13.93
2018-10-11T05:14:03.311Z,14.78
2018-10-11T05:16:37.497Z,15.45
2018-10-11T05:19:11.842Z,12.65
2018-10-11T05:21:45.924Z,14.23
2018-10-11T05:24:20.351Z,14.03
2018-10-11T05:26:55.223Z,14.63
2018-10-11T05:29:29.219Z,14.47
2018-10-11T05:32:03.305Z,12.58
2018-10-11T05:34:37.131Z,14.15
2018-10-11T05:37:11.139Z,13.88
2018-10-11T05:39:45.263Z,12.85
2018-10-11T05:42:19.383Z,14.87
2018-10-11T05:44:52.833Z,15.48
2018-10-11T05:47:26.456Z,16.12
2018-10-11T05:50:01.044Z,14.35
2018-10-11T05:52:35.100Z,14.00
2018-10-11T05:55:09.218Z,15.80
2018-10-11T05:57:43.096Z,17.00
2018-10-11T06:00:16.935Z,17.67
2018-10-11T06:03:07.469Z,17.02
2018-10-11T06:05:41.064Z,21.62
2018-10-11T06:08:14.634Z,17.92
2018-10-11T06:10:48.464Z,20.43
2018-10-11T06:13:21.916Z,17.67
2018-10-11T06:15:56.237Z,21.10
2018-10-11T06:18:29.848Z,21.57
2018-10-11T06:21:03.749Z,20.12
2018-10-11T06:23:38.290Z,21.77
2018-10-11T06:26:12.906Z,19.38
2018-10-11T06:28:46.852Z,24.93
2018-10-11T06:31:20.917Z,21.43
2018-10-11T06:33:55.015Z,19.48
2018-10-11T06:36:28.889Z,18.92
2018-10-11T06:39:04.290Z,19.60
2018-10-11T06:41:39.143Z,19.27
2018-10-11T06:44:13.365Z,20.57
2018-10-11T06:46:47.691Z,18.67
2018-10-11T06:49:21.731Z,18.93
2018-10-11T06:51:55.912Z,19.55
2018-10-11T06:54:29.653Z,18.00
2018-10-11T06:57:03.467Z,17.57
2018-10-11T06:59:37.344Z,18.20
2018-10-11T07:02:11.072Z,17.87
2018-10-11T07:04:45.142Z,19.30
2018-10-11T07:07:19.041Z,18.40
2018-10-11T07:09:52.573Z,16.53
2018-10-11T07:12:26.553Z,17.60
2018-10-11T07:15:00.505Z,17.82
2018-10-11T07:17:34.143Z,16.57
2018-10-11T07:20:08.146Z,16.62
2018-10-11T07:22:42.059Z,16.40
2018-10-11T07:25:17.679Z,15.70
2018-10-11T07:27:51.640Z,16.83
2018-10-11T07:30:25.719Z,16.00
2018-10-11T07:32:59.428Z,17.65
2018-10-11T07:35:33.282Z,16.93
2018-10-11T07:38:07.193Z,17.05
2018-10-11T07:40:41.161Z,17.93
2018-10-11T07:43:15.711Z,16.37
2018-10-11T07:45:49.550Z,17.70
2018-10-11T07:48:23.063Z,17.50
2018-10-11T07:50:56.748Z,17.75
2018-10-11T07:53:30.087Z,15.38
2018-10-11T07:56:03.668Z,15.70
2018-10-11T07:58:37.799Z,14.63
2018-10-11T08:01:11.891Z,15.88
2018-10-11T08:03:45.954Z,16.32
2018-10-11T08:06:20.070Z,16.17
2018-10-11T08:08:55.071Z,16.62
2018-10-11T08:11:29.418Z,17.90
2018-10-11T08:14:03.453Z,16.10
2018-10-11T08:16:37.654Z,14.50
2018-10-11T08:19:12.270Z,14.57
2018-10-11T08:21:46.291Z,14.70
2018-10-11T08:24:20.266Z,15.37
2018-10-11T08:26:55.534Z,16.30
2018-10-11T08:29:29.455Z,15.98
2018-10-11T08:32:04.117Z,14.78
2018-10-11T08:34:37.852Z,14.15
2018-10-11T08:37:11.398Z,15.43
2018-10-11T08:39:45.222Z,13.80
2018-10-11T08:42:19.088Z,15.35
2018-10-11T08:44:53.252Z,14.63
2018-10-11T08:47:27.768Z,11.37
2018-10-11T08:50:02.090Z,18.47
2018-10-11T08:52:35.687Z,15.08
2018-10-11T08:55:09.466Z,16.05
2018-10-11T08:57:43.555Z,15.48
2018-10-11T09:00:18.802Z,17.13
2018-10-11T09:02:52.660Z,15.67
2018-10-11T09:05:26.475Z,16.73
2018-10-11T09:08:00.368Z,15.48
2018-10-11T09:10:38.345Z,15.90
2018-10-11T09:13:09.636Z,17.10
2018-10-11T09:15:43.594Z,16.02
2018-10-11T09:18:18.015Z,16.85
2018-10-11T09:23:43.420Z,14.17
2018-10-11T09:26:17.118Z,13.05
2018-10-11T09:28:51.762Z,14.45
2018-10-11T09:31:25.735Z,13.78
2018-10-11T09:33:59.505Z,13.62
2018-10-11T09:36:47.306Z,14.40
2018-10-11T09:39:21.064Z,14.43
2018-10-11T09:41:55.131Z,14.43
2018-10-11T09:44:28.973Z,14.65
2018-10-11T09:47:02.633Z,14.30
2018-10-11T09:49:36.479Z,13.23
2018-10-11T09:52:10.567Z,13.03
2018-10-11T09:54:44.085Z,14.00
2018-10-11T09:57:22.690Z,12.50
2018-10-11T09:59:57.228Z,12.57
2018-10-11T10:02:31.683Z,12.33
2018-10-11T10:05:06.285Z,11.17
2018-10-11T10:07:40.096Z,9.78
2018-10-11T10:10:13.820Z,9.50
2018-10-11T10:12:47.505Z,7.80
2018-10-11T10:15:21.345Z,7.53
2018-10-11T10:17:55.001Z,7.10
2018-10-11T10:20:29.166Z,7.10
2018-10-11T10:23:02.653Z,6.65
2018-10-11T10:25:36.642Z,6.90
2018-10-11T10:28:10.851Z,6.60
2018-10-11T10:30:49.083Z,5.70
2018-10-11T10:33:23.945Z,5.70
2018-10-11T10:35:57.911Z,6.63
2018-10-11T10:38:31.529Z,6.30
2018-10-11T10:41:05.532Z,5.73
2018-10-11T10:43:39.265Z,6.25
2018-10-11T10:46:13.179Z,7.10
2018-10-11T10:48:46.975Z,8.30
2018-10-11T10:56:16.065Z,8.17
2018-10-11T10:58:49.119Z,7.97
2018-10-11T11:01:23.398Z,9.00
2018-10-11T11:03:58.012Z,8.47
2018-10-11T11:06:31.877Z,9.00
2018-10-11T11:09:07.109Z,10.17
2018-10-11T11:11:42.197Z,10.17
2018-10-11T11:14:18.057Z,9.53
2018-10-11T11:16:52.160Z,9.85
2018-10-11T11:19:26.287Z,10.07
2018-10-11T11:22:00.255Z,9.98
2018-10-11T11:24:34.149Z,10.50
2018-10-11T11:27:07.862Z,12.37
2018-10-11T11:29:41.811Z,14.30
2018-10-11T11:32:16.970Z,18.02
2018-10-11T11:34:50.800Z,18.47
2018-10-11T11:37:24.743Z,15.90
2018-10-11T11:39:58.594Z,15.53
2018-10-11T11:42:32.201Z,15.43
2018-10-11T11:45:06.349Z,14.67
2018-10-11T11:47:40.305Z,16.02
2018-10-11T11:50:14.170Z,16.53
2018-10-11T11:52:48.021Z,16.10
2018-10-11T11:55:22.064Z,19.37
2018-10-11T11:57:55.682Z,22.60
2018-10-11T12:00:30.585Z,19.33
2018-10-11T12:03:04.361Z,21.63
2018-10-11T12:05:38.212Z,22.37
2018-10-11T12:08:12.264Z,22.13
2018-10-11T12:10:46.009Z,21.42
2018-10-11T12:13:19.856Z,21.67
2018-10-11T12:15:53.878Z,22.93
2018-10-11T12:18:27.909Z,24.37
2018-10-11T12:21:01.448Z,31.20
2018-10-11T12:23:35.208Z,24.80
2018-10-11T12:26:09.323Z,19.75
2018-10-11T12:28:43.689Z,18.60
2018-10-11T12:31:17.411Z,18.57
2018-10-11T12:33:53.521Z,17.00
2018-10-11T12:36:27.241Z,16.10
2018-10-11T12:39:01.287Z,15.93
2018-10-11T12:41:34.943Z,13.80
2018-10-11T12:44:08.764Z,12.73
2018-10-11T12:46:42.536Z,12.73
2018-10-11T12:49:16.174Z,12.93
2018-10-11T12:51:50.649Z,12.23
2018-10-11T12:54:24.790Z,11.63
2018-10-11T12:56:58.721Z,12.80
2018-10-11T12:59:32.947Z,15.43
2018-10-11T13:02:06.898Z,14.80
2018-10-11T13:04:40.504Z,12.97
2018-10-11T13:07:14.495Z,12.70
2018-10-11T13:09:48.336Z,12.00
2018-10-11T13:12:22.127Z,12.37
2018-10-11T13:14:55.930Z,11.87
2018-10-11T13:17:35.283Z,13.63
2018-10-11T13:20:05.062Z,15.20
2018-10-11T13:22:39.332Z,12.30
2018-10-11T13:25:13.187Z,12.63
2018-10-11T13:27:47.513Z,12.60
2018-10-11T13:30:21.602Z,12.20
2018-10-11T13:32:55.493Z,12.37
2018-10-11T13:35:31.233Z,15.47
2018-10-11T13:38:05.464Z,14.17
2018-10-11T13:40:39.522Z,13.83
2018-10-11T13:43:13.462Z,11.85
2018-10-11T13:45:47.362Z,12.70
2018-10-11T13:48:21.711Z,12.77
2018-10-11T13:50:55.848Z,12.63
2018-10-11T13:53:30.378Z,12.47
2018-10-11T13:56:05.554Z,11.77
2018-10-11T13:58:39.466Z,13.27
2018-10-11T14:01:13.612Z,12.53
2018-10-11T14:03:47.730Z,10.73
2018-10-11T14:06:21.991Z,11.05
2018-10-11T14:08:55.589Z,11.33
2018-10-11T14:11:29.540Z,12.90
2018-10-11T14:14:03.384Z,13.50
2018-10-11T14:16:37.471Z,11.60
2018-10-11T14:19:11.476Z,11.70
2018-10-11T14:21:45.390Z,10.83
2018-10-11T14:24:19.099Z,9.67
2018-10-11T14:26:53.123Z,10.82
2018-10-11T14:29:27.089Z,11.07
2018-10-11T14:32:01.031Z,9.85
2018-10-11T14:34:34.893Z,10.83
2018-10-11T14:37:09.754Z,11.63
2018-10-11T14:39:43.380Z,11.70
2018-10-11T14:42:17.188Z,11.00
2018-10-11T14:44:50.938Z,12.40
2018-10-11T14:47:25.015Z,11.53
2018-10-11T14:49:58.976Z,10.93
2018-10-11T14:52:32.928Z,13.63
2018-10-11T14:55:06.737Z,12.55
2018-10-11T14:57:40.482Z,14.03
2018-10-11T15:00:15.235Z,12.47
2018-10-11T15:02:48.734Z,13.37
2018-10-11T15:05:22.866Z,13.10
2018-10-11T15:07:57.149Z,13.70
2018-10-11T15:10:31.467Z,14.13
2018-10-11T15:13:05.549Z,13.37
2018-10-11T15:15:39.666Z,14.07
2018-10-11T15:18:13.601Z,14.43
2018-10-11T15:20:47.212Z,15.33
2018-10-11T15:23:20.966Z,15.13
2018-10-11T15:25:54.372Z,15.07
2018-10-11T15:28:28.404Z,14.73
2018-10-11T15:31:02.155Z,14.17
2018-10-11T15:33:36.025Z,13.07
2018-10-11T15:36:09.563Z,13.22
2018-10-11T15:38:43.985Z,13.40
2018-10-11T15:41:18.155Z,13.48
2018-10-11T15:43:52.210Z,20.95
2018-10-11T15:46:26.249Z,15.97
2018-10-11T15:49:00.123Z,15.15
2018-10-11T15:51:33.657Z,18.27
2018-10-11T15:54:07.651Z,14.30
2018-10-11T15:56:41.433Z,15.60
2018-10-11T15:59:15.566Z,14.47
2018-10-11T16:01:49.328Z,14.85
2018-10-11T16:04:22.987Z,19.80
2018-10-11T16:06:56.999Z,15.03
2018-10-11T16:09:30.960Z,16.00
2018-10-11T16:12:04.901Z,14.87
2018-10-11T16:14:39.149Z,15.07
2018-10-11T16:17:13.229Z,14.10
2018-10-11T16:19:47.097Z,14.63
2018-10-11T16:22:21.112Z,15.10
2018-10-11T16:24:55.214Z,14.43
2018-10-11T16:27:29.703Z,15.93
2018-10-11T16:30:03.442Z,15.93
2018-10-11T16:32:37.580Z,15.63
2018-10-11T16:35:11.155Z,15.93
2018-10-11T16:37:45.263Z,19.50
2018-10-11T16:40:21.527Z,19.17
2018-10-11T16:42:55.230Z,20.83
2018-10-11T16:45:29.332Z,22.73
2018-10-11T16:48:02.977Z,22.23
2018-10-11T16:50:36.983Z,21.70
2018-10-11T16:53:10.711Z,22.47
2018-10-11T16:55:44.894Z,23.73
2018-10-11T16:58:18.817Z,23.13
2018-10-11T17:00:53.442Z,22.37
2018-10-11T17:03:27.249Z,25.77
2018-10-11T17:06:01.442Z,22.43
2018-10-11T17:08:35.729Z,26.90
2018-10-11T17:11:09.645Z,22.60
2018-10-11T17:13:43.618Z,23.73
2018-10-11T17:16:17.614Z,23.43
2018-10-11T17:18:51.295Z,23.17
2018-10-11T17:21:25.458Z,23.70
2018-10-11T17:23:59.220Z,26.93
2018-10-11T17:26:33.220Z,22.60
2018-10-11T17:29:07.269Z,21.17
2018-10-11T17:31:41.024Z,22.00
2018-10-11T17:34:14.822Z,23.00
2018-10-11T17:36:48.674Z,25.70
2018-10-11T17:42:38.294Z,26.87
2018-10-11T17:45:12.314Z,23.63
2018-10-11T17:47:46.260Z,26.07
2018-10-11T17:50:50.312Z,26.00
2018-10-11T17:53:24.125Z,24.53
2018-10-11T17:55:57.784Z,24.00
2018-10-11T17:58:33.742Z,26.33
2018-10-11T18:01:08.428Z,29.43
2018-10-11T18:03:42.119Z,28.50
2018-10-11T18:06:16.044Z,27.63
2018-10-11T18:08:50.212Z,26.40
2018-10-11T18:11:23.943Z,30.47
2018-10-11T18:13:57.808Z,29.03
2018-10-11T18:16:32.488Z,28.40
2018-10-11T18:19:06.334Z,26.07
2018-10-11T18:21:40.235Z,24.30
2018-10-11T18:24:13.781Z,27.17
2018-10-11T18:26:47.580Z,27.13
2018-10-11T18:29:21.437Z,24.80
2018-10-11T18:31:56.955Z,23.73
2018-10-11T18:34:30.693Z,20.67
2018-10-11T18:37:04.895Z,19.50
2018-10-11T18:39:38.841Z,20.23
2018-10-11T18:42:12.688Z,18.83
2018-10-11T18:44:47.705Z,17.70
2018-10-11T18:47:21.767Z,15.67
2018-10-11T18:49:56.767Z,14.83
2018-10-11T18:52:30.651Z,15.50
2018-10-11T18:55:04.697Z,18.10
2018-10-11T18:57:38.995Z,15.13
2018-10-11T19:00:13.319Z,15.03
2018-10-11T19:02:47.120Z,16.90
2018-10-11T19:05:21.012Z,16.17
2018-10-11T19:07:54.897Z,14.80
2018-10-11T19:10:29.018Z,13.57
2018-10-11T19:13:03.217Z,13.40
2018-10-11T19:15:37.014Z,13.27
2018-10-11T19:18:10.547Z,13.63
2018-10-11T19:20:44.497Z,13.50
2018-10-11T19:23:18.152Z,13.00
2018-10-11T19:25:52.662Z,13.23
2018-10-11T19:28:26.444Z,14.60
2018-10-11T19:31:00.529Z,11.53
2018-10-11T19:33:34.526Z,11.20
2018-10-11T19:36:08.364Z,14.00
2018-10-11T19:38:42.648Z,11.87
2018-10-11T19:41:16.446Z,12.57
2018-10-11T19:43:50.151Z,11.00
2018-10-11T19:46:25.102Z,12.20
2018-10-11T19:48:58.895Z,11.27
2018-10-11T19:51:32.592Z,11.27
2018-10-11T19:54:06.732Z,12.20
2018-10-11T19:56:40.524Z,12.83
2018-10-11T19:59:13.937Z,12.73
2018-10-11T20:01:47.379Z,13.57
2018-10-11T20:04:21.378Z,11.67
2018-10-11T20:06:55.037Z,11.17
2018-10-11T20:09:29.265Z,10.33
2018-10-11T20:12:03.191Z,12.07
2018-10-11T20:14:36.969Z,11.63
2018-10-11T20:17:12.766Z,13.03
2018-10-11T20:19:46.738Z,11.83
2018-10-11T20:22:20.461Z,10.20
2018-10-11T20:24:54.307Z,11.70
2018-10-11T20:27:27.987Z,11.10
2018-10-11T20:30:01.903Z,13.17
2018-10-11T20:32:35.593Z,12.50
2018-10-11T20:35:09.730Z,13.27
2018-10-11T20:37:43.236Z,12.07
2018-10-11T20:40:17.000Z,12.70
2018-10-11T20:42:50.967Z,11.57
2018-10-11T20:45:24.557Z,14.13
2018-10-11T20:47:58.966Z,12.87
2018-10-11T20:50:33.513Z,13.63
2018-10-11T20:53:08.036Z,12.40
2018-10-11T20:55:41.523Z,12.23
2018-10-11T20:58:15.582Z,14.93
2018-10-11T21:00:49.427Z,14.60
2018-10-11T21:03:23.346Z,14.83
2018-10-11T21:05:56.847Z,12.93
2018-10-11T21:08:31.207Z,11.10
2018-10-11T21:11:04.735Z,12.50
2018-10-11T21:13:39.324Z,11.93
2018-10-11T21:16:13.430Z,12.00
2018-10-11T21:18:47.128Z,10.73
2018-10-11T21:21:21.082Z,10.97
2018-10-11T21:23:54.777Z,9.77
2018-10-11T21:26:28.427Z,9.10
2018-10-11T21:29:02.161Z,10.57
2018-10-11T21:31:36.704Z,8.57
2018-10-11T21:34:09.996Z,9.87
2018-10-11T21:36:43.850Z,8.27
2018-10-11T21:39:17.404Z,9.47
2018-10-11T21:41:51.055Z,12.47
2018-10-11T21:44:24.966Z,11.03
2018-10-11T21:46:59.062Z,9.58
2018-10-11T21:49:34.050Z,8.83
2018-10-11T21:52:07.980Z,16.53
2018-10-11T21:54:41.902Z,10.60
2018-10-11T21:57:16.189Z,9.10
2018-10-11T21:59:50.624Z,9.03
2018-10-11T22:02:24.583Z,8.57
2018-10-11T22:04:58.463Z,8.67
2018-10-11T22:07:32.301Z,10.17
2018-10-11T22:10:06.253Z,9.73
2018-10-11T22:12:40.541Z,11.43
2018-10-11T22:15:14.552Z,12.47
2018-10-11T22:17:48.485Z,10.33
2018-10-11T22:20:22.355Z,11.60
2018-10-11T22:22:56.162Z,11.77
2018-10-11T22:25:32.589Z,8.93
2018-10-11T22:28:06.128Z,10.17
2018-10-11T22:30:39.738Z,10.80
2018-10-11T22:33:13.719Z,10.87
2018-10-11T22:35:47.770Z,9.90
2018-10-11T22:38:21.769Z,10.57
2018-10-11T22:40:55.490Z,10.80
2018-10-11T22:43:29.950Z,10.33
2018-10-11T22:46:03.977Z,10.67
2018-10-11T22:48:37.744Z,9.70
2018-10-11T22:51:12.786Z,10.53
2018-10-11T22:53:46.323Z,11.57
2018-10-11T22:56:23.126Z,11.60
2018-10-11T22:58:57.314Z,13.62
2018-10-11T23:01:31.267Z,12.30
2018-10-11T23:04:04.991Z,12.20
2018-10-11T23:06:39.232Z,10.40
2018-10-11T23:09:13.396Z,10.00
2018-10-11T23:11:47.226Z,11.03
2018-10-11T23:14:20.845Z,12.53
2018-10-11T23:16:54.502Z,11.17
2018-10-11T23:19:28.188Z,10.43
2018-10-11T23:22:01.474Z,9.63
2018-10-11T23:24:35.673Z,10.10
2018-10-11T23:27:09.283Z,11.60
2018-10-11T23:29:43.584Z,11.63
2018-10-11T23:32:17.477Z,10.60
2018-10-11T23:34:51.948Z,10.50
2018-10-11T23:37:25.521Z,10.23
2018-10-11T23:39:59.928Z,11.93
2018-10-11T23:42:33.794Z,12.50
2018-10-11T23:45:07.697Z,12.73
2018-10-11T23:47:41.693Z,15.77
2018-10-11T23:50:15.964Z,12.03
2018-10-11T23:52:50.757Z,12.33
2018-10-11T23:55:24.438Z,12.53
2018-10-11T23:57:58.362Z,12.17
